Detall de PIREP

Printer-friendly versionPDF version

[2012/07/10 21:23:00]
Flight IATA:CT3121
Pilot Number:026
Company ICAO:CAT
Aircraft Type:DC85/A
PAX:132
Aircraft Registration:PAX
Departing Airport: LEVC
Destination Airport: LEPA
Alternate Airport:LEMH
Online: VATSIM
Route:RIKOS A33 GATOS
Flight Level:F180
No Slew and time accel
No pause
Crash detect
Detect pilot in Cockpit between each 30 and 45 minutes
21:23 Zero fuel Weight: 178414 Lbs, Fuel Weight: 21849 Lbs
21:23 VATSIM:LEVC 102100Z 05005KT 9000 NSC 26/22 Q1014 NOSIG
21:23 VATSIM:LEPA 102100Z 00000KT 9999 FEW040 26/23 Q1015 NOSIG
21:24 VOICE CATALONIAN / IATA CT3121 INTERHUB ROUTE
21:24 Parking Brakes off
21:32 Take-off
21:32 Take off Weight: 199151 Lbs
21:32 Wind: 053º @ 005 Knots Heading: 114º
21:32 POS N39º 29´ 16´´ W000º 28´ 41´´
21:32 Gear Up: 161 Knots
21:32 Flaps:2 at 161 Knots
21:33 Flaps:1 at 184 Knots
21:34 Flaps:0 at 196 Knots
21:42 TOC
21:42Fuel Weight: 17895 Lb
21:47 Wind:195º@013 Knots Heading: 099º Ground Speed: 413 Knots Altitude 18031 ft
21:49 TOD
21:49 Fuel Weight: 16142 Lb
22:02 Wind:176º@000 Knots Heading: 040º Ground Speed: 216 Knots Altitude 4996 ft
22:09 Flaps:1 at 168 Knots
22:09 Gear Down: 169 Knots
22:11 Flaps:2 at 169 Knots
22:11 Flaps:3 at 167 Knots
22:11 Flaps:4 at 151 Knots
22:12 Flaps:5 at 144 Knots
22:12 TouchDown:Rate -396 ft/min Speed: 118 Knots
22:13 VATSIM:LEPA 102200Z 00000KT 9999 SCT012 25/22 Q1015 NOSIG
22:13 Land
22:13 Wind:183º@002 Knots
22:13 Heading: 238º
22:13 Flight Duration: 00:41
22:13 Landing Weight: 192412 Lbs
22:13 POS N39º 32´ 51´´ E002º 44´ 42´´
22:18 Parking brakes on
22:18 Block to Block Duration: 00:54
22:18 Final Fuel: 13575 Lbls
22:18 Spent Fuel: 8273 Lbls
22:18 Flight Length: 199 NM
22:18 TOD Land Length: 101 NM

Exportar CSV

Powered by Drupal - Modified by Danger4k